createdAt,value
2022-12-14T00:04:55.836Z,83.62
2022-12-14T00:09:57.367Z,83.81
2022-12-14T00:14:58.911Z,83.54
2022-12-14T00:20:00.452Z,83.60
2022-12-14T00:25:02.628Z,83.46
2022-12-14T00:30:04.572Z,83.68
2022-12-14T00:35:07.654Z,84.54
2022-12-14T00:40:10.224Z,84.51
2022-12-14T00:45:14.174Z,84.47
2022-12-14T00:50:15.756Z,83.59
2022-12-14T00:55:17.290Z,83.83
2022-12-14T01:00:18.922Z,84.48
2022-12-14T01:05:20.536Z,83.85
2022-12-14T01:10:22.475Z,83.60
2022-12-14T01:15:24.139Z,83.81
2022-12-14T01:20:25.668Z,83.67
2022-12-14T01:25:27.239Z,84.66
2022-12-14T01:30:28.982Z,85.29
2022-12-14T01:35:30.524Z,85.00
2022-12-14T01:40:32.119Z,84.67
2022-12-14T01:45:33.650Z,83.73
2022-12-14T01:50:40.120Z,83.62
2022-12-14T01:55:50.501Z,83.57
2022-12-14T02:00:58.196Z,84.55
2022-12-14T02:06:14.393Z,84.10
2022-12-14T02:11:35.940Z,84.70
2022-12-14T02:16:38.513Z,85.45
2022-12-14T02:22:09.986Z,84.55
2022-12-14T02:27:11.533Z,84.38
2022-12-14T02:32:34.584Z,84.16
2022-12-14T02:37:57.193Z,84.04
2022-12-14T02:43:04.966Z,85.03
2022-12-14T02:48:37.240Z,84.41
2022-12-14T02:54:02.473Z,84.48
2022-12-14T02:59:07.874Z,85.08
2022-12-14T03:04:09.430Z,85.24
2022-12-14T03:09:17.522Z,84.90
2022-12-14T03:14:28.937Z,84.76
2022-12-14T03:19:36.361Z,85.58
2022-12-14T03:24:43.040Z,84.48
2022-12-14T03:29:52.751Z,85.52
2022-12-14T03:35:33.006Z,85.23
2022-12-14T03:40:46.182Z,85.51
2022-12-14T03:46:00.656Z,85.91
2022-12-14T03:51:13.802Z,85.14
2022-12-14T03:56:28.869Z,84.46
2022-12-14T04:02:02.471Z,84.68
2022-12-14T04:07:14.685Z,85.79
2022-12-14T04:12:48.021Z,86.12
2022-12-14T04:18:14.627Z,85.56
2022-12-14T04:23:47.636Z,85.89
2022-12-14T04:29:18.615Z,85.85
2022-12-14T04:34:26.196Z,85.42
2022-12-14T04:39:35.996Z,85.56
2022-12-14T04:44:42.590Z,86.51
2022-12-14T04:49:50.272Z,85.31
2022-12-14T04:55:10.107Z,85.93
2022-12-14T05:00:12.982Z,86.74
2022-12-14T05:05:25.858Z,86.40
2022-12-14T05:10:46.232Z,86.53
2022-12-14T05:15:57.183Z,86.69
2022-12-14T05:20:58.740Z,86.35
2022-12-14T05:26:00.271Z,86.61
2022-12-14T05:31:03.991Z,86.68
2022-12-14T05:36:05.928Z,88.07
2022-12-14T05:41:07.522Z,87.13
2022-12-14T05:46:11.630Z,87.68
2022-12-14T05:51:13.764Z,88.51
2022-12-14T05:56:15.567Z,89.13
2022-12-14T06:01:19.610Z,88.38
2022-12-14T06:06:21.570Z,89.73
2022-12-14T06:11:24.354Z,89.09
2022-12-14T06:16:26.678Z,89.83
2022-12-14T06:21:33.352Z,89.94
2022-12-14T06:32:02.059Z,90.54
2022-12-14T06:37:03.698Z,91.00
2022-12-14T06:42:06.267Z,91.82
2022-12-14T06:47:07.799Z,92.47
2022-12-14T06:52:10.344Z,92.96
2022-12-14T06:57:11.993Z,93.63
2022-12-14T07:02:13.718Z,94.01
2022-12-14T07:07:15.426Z,93.18
2022-12-14T07:12:16.959Z,93.11
2022-12-14T07:17:18.500Z,93.59
2022-12-14T07:22:20.437Z,93.45
2022-12-14T07:27:24.108Z,94.40
2022-12-14T07:32:26.056Z,96.19
2022-12-14T07:37:27.634Z,96.27
2022-12-14T07:42:29.251Z,95.55
2022-12-14T07:47:34.698Z,95.38
2022-12-14T07:52:37.663Z,95.40
2022-12-14T07:57:39.372Z,96.06
2022-12-14T08:02:41.692Z,95.49
2022-12-14T08:07:43.699Z,95.46
2022-12-14T08:12:45.459Z,96.08
2022-12-14T08:17:47.051Z,96.79
2022-12-14T08:22:51.292Z,96.13
2022-12-14T08:27:53.166Z,95.18
2022-12-14T08:32:55.833Z,95.84
2022-12-14T08:37:57.455Z,95.44
2022-12-14T08:42:59.326Z,95.77
2022-12-14T08:48:01.614Z,96.21
2022-12-14T08:53:03.215Z,95.47
2022-12-14T08:58:04.773Z,95.95
2022-12-14T09:03:06.767Z,96.19
2022-12-14T09:08:09.165Z,97.10
2022-12-14T09:13:15.241Z,97.40
2022-12-14T09:18:16.796Z,98.16
2022-12-14T09:23:18.356Z,98.77
2022-12-14T09:28:19.969Z,100.00
2022-12-14T09:33:21.537Z,100.00
2022-12-14T09:38:27.236Z,100.00
2022-12-14T09:43:43.601Z,100.00
2022-12-14T09:48:48.671Z,100.00
2022-12-14T09:54:02.367Z,100.00
2022-12-14T09:59:05.546Z,100.00
2022-12-14T10:04:32.034Z,100.00
2022-12-14T10:10:00.518Z,100.00
2022-12-14T10:15:02.144Z,100.00
2022-12-14T10:20:18.245Z,100.00
2022-12-14T10:25:25.023Z,100.00
2022-12-14T10:30:26.724Z,100.00
2022-12-14T10:35:43.920Z,100.00
2022-12-14T10:40:50.593Z,100.00
2022-12-14T10:45:54.939Z,100.00
2022-12-14T10:51:08.037Z,100.00
2022-12-14T10:56:20.977Z,100.00
2022-12-14T11:01:22.724Z,100.00
2022-12-14T11:06:25.161Z,100.00
2022-12-14T11:11:29.175Z,100.00
2022-12-14T11:16:37.361Z,100.00
2022-12-14T11:21:39.388Z,100.00
2022-12-14T11:26:43.467Z,100.00
2022-12-14T11:31:48.024Z,100.00
2022-12-14T11:36:50.149Z,100.00
2022-12-14T11:41:57.910Z,100.00
2022-12-14T11:47:00.875Z,100.00
2022-12-14T11:52:05.287Z,100.00
2022-12-14T11:57:12.531Z,100.00
2022-12-14T12:02:18.936Z,100.00
2022-12-14T12:07:28.128Z,100.00
2022-12-14T12:12:33.647Z,100.00
2022-12-14T12:17:42.181Z,100.00
2022-12-14T12:22:48.073Z,100.00
2022-12-14T12:28:03.326Z,100.00
2022-12-14T12:33:14.042Z,100.00
2022-12-14T12:38:36.656Z,100.00
2022-12-14T12:43:49.881Z,100.00
2022-12-14T12:49:12.899Z,100.00
2022-12-14T12:54:23.971Z,100.00
2022-12-14T12:59:36.212Z,100.00
2022-12-14T13:04:40.967Z,100.00
2022-12-14T13:09:58.256Z,100.00
2022-12-14T13:15:03.823Z,100.00
2022-12-14T13:20:19.798Z,100.00
2022-12-14T13:25:28.280Z,100.00
2022-12-14T13:30:57.297Z,100.00
2022-12-14T13:36:23.114Z,100.00
2022-12-14T13:41:34.868Z,100.00
2022-12-14T13:46:37.208Z,100.00
2022-12-14T13:51:40.527Z,100.00
2022-12-14T13:56:42.186Z,100.00
2022-12-14T14:01:46.688Z,100.00
2022-12-14T14:06:53.067Z,100.00
2022-12-14T14:12:00.475Z,100.00
2022-12-14T14:17:24.720Z,100.00
2022-12-14T14:22:29.615Z,100.00
2022-12-14T14:27:50.263Z,100.00
2022-12-14T14:33:19.848Z,100.00
2022-12-14T14:38:33.279Z,100.00
2022-12-14T14:43:46.764Z,100.00
2022-12-14T14:49:01.247Z,100.00
2022-12-14T14:54:53.989Z,100.00
2022-12-14T14:59:51.264Z,100.00
2022-12-14T15:04:57.025Z,100.00
2022-12-14T15:10:07.762Z,100.00
2022-12-14T15:15:20.231Z,100.00
2022-12-14T15:20:28.876Z,100.00
2022-12-14T15:25:31.679Z,100.00
2022-12-14T15:30:34.582Z,100.00
2022-12-14T15:35:39.232Z,100.00
2022-12-14T15:40:41.341Z,100.00
2022-12-14T15:45:45.960Z,100.00
2022-12-14T15:50:51.833Z,100.00
2022-12-14T15:56:00.317Z,100.00
2022-12-14T16:01:23.127Z,100.00
2022-12-14T16:06:27.495Z,100.00
2022-12-14T16:11:54.350Z,100.00
2022-12-14T16:16:56.436Z,100.00
2022-12-14T16:22:28.661Z,100.00
2022-12-14T16:27:30.967Z,100.00
2022-12-14T16:32:32.804Z,100.00
2022-12-14T16:37:34.803Z,100.00
2022-12-14T16:42:36.420Z,100.00
2022-12-14T16:48:23.093Z,100.00
2022-12-14T16:53:29.741Z,100.00
2022-12-14T16:58:32.519Z,100.00
2022-12-14T17:03:37.125Z,100.00
2022-12-14T17:08:39.112Z,100.00
2022-12-14T17:13:40.688Z,100.00
2022-12-14T17:18:42.527Z,100.00
2022-12-14T17:23:45.409Z,100.00
2022-12-14T17:28:46.990Z,100.00
2022-12-14T17:33:52.038Z,100.00
2022-12-14T17:38:53.685Z,100.00
2022-12-14T17:43:57.183Z,100.00
2022-12-14T17:49:04.521Z,100.00
2022-12-14T17:54:19.210Z,100.00
2022-12-14T17:59:20.798Z,100.00
2022-12-14T18:04:22.393Z,100.00
2022-12-14T18:09:23.962Z,100.00
2022-12-14T18:14:25.559Z,100.00
2022-12-14T18:19:27.118Z,100.00
2022-12-14T18:24:28.921Z,100.00
2022-12-14T18:29:30.515Z,100.00
2022-12-14T18:34:32.077Z,100.00
2022-12-14T18:39:33.678Z,100.00
2022-12-14T18:44:35.276Z,100.00
2022-12-14T18:49:37.159Z,100.00
2022-12-14T18:54:38.772Z,100.00
2022-12-14T18:59:42.607Z,100.00
2022-12-14T19:04:49.074Z,100.00
2022-12-14T19:09:50.771Z,100.00
2022-12-14T19:14:52.432Z,100.00
2022-12-14T19:19:54.048Z,100.00
2022-12-14T19:24:55.631Z,100.00
2022-12-14T19:29:57.263Z,100.00
2022-12-14T19:34:58.872Z,100.00
2022-12-14T19:40:02.447Z,100.00
2022-12-14T19:45:04.393Z,100.00
2022-12-14T19:50:06.967Z,100.00
2022-12-14T19:55:09.775Z,100.00
2022-12-14T20:00:11.715Z,100.00
2022-12-14T20:05:13.360Z,100.00
2022-12-14T20:10:14.941Z,100.00
2022-12-14T20:15:16.604Z,100.00
2022-12-14T20:20:19.187Z,100.00
2022-12-14T20:25:20.816Z,100.00
2022-12-14T20:30:22.385Z,100.00
2022-12-14T20:35:24.018Z,100.00
2022-12-14T20:40:25.966Z,100.00
2022-12-14T20:45:27.523Z,100.00
2022-12-14T20:50:29.088Z,100.00
2022-12-14T20:55:33.391Z,100.00
2022-12-14T21:00:37.284Z,100.00
2022-12-14T21:05:42.223Z,100.00
2022-12-14T21:10:46.157Z,100.00
2022-12-14T21:15:47.766Z,100.00
2022-12-14T21:20:49.371Z,100.00
2022-12-14T21:25:50.968Z,100.00
2022-12-14T21:30:52.603Z,100.00
2022-12-14T21:35:54.232Z,100.00
2022-12-14T21:41:14.441Z,100.00
2022-12-14T21:46:16.123Z,100.00
2022-12-14T21:51:19.117Z,100.00
2022-12-14T21:56:39.000Z,100.00
2022-12-14T22:01:40.862Z,100.00
2022-12-14T22:06:44.903Z,100.00
2022-12-14T22:11:47.034Z,100.00
2022-12-14T22:16:51.315Z,100.00
2022-12-14T22:21:53.127Z,100.00
2022-12-14T22:26:55.762Z,100.00
2022-12-14T22:31:57.710Z,100.00
2022-12-14T22:36:59.338Z,100.00
2022-12-14T22:42:01.014Z,100.00
2022-12-14T22:47:04.716Z,100.00
2022-12-14T22:52:06.270Z,100.00
2022-12-14T22:57:17.900Z,100.00
2022-12-14T23:02:19.708Z,100.00
2022-12-14T23:07:21.695Z,100.00
2022-12-14T23:12:41.830Z,100.00
2022-12-14T23:18:01.956Z,100.00
2022-12-14T23:23:26.272Z,100.00
2022-12-14T23:28:50.412Z,100.00
2022-12-14T23:34:10.636Z,100.00
2022-12-14T23:39:30.669Z,100.00
2022-12-14T23:44:50.792Z,100.00
2022-12-14T23:50:10.956Z,100.00
2022-12-14T23:55:31.231Z,100.00
